sensor_id;sensor_type;location;lat;lon;timestamp;P1;durP1;ratioP1;P2;durP2;ratioP2
67869;SDS011;54673;52.262;6.830;2023-03-03T00:02:21;4.20;;;2.43;;
67869;SDS011;54673;52.262;6.830;2023-03-03T00:04:47;4.60;;;2.60;;
67869;SDS011;54673;52.262;6.830;2023-03-03T00:07:12;3.97;;;2.40;;
67869;SDS011;54673;52.262;6.830;2023-03-03T00:09:45;4.60;;;2.50;;
67869;SDS011;54673;52.262;6.830;2023-03-03T00:12:24;4.30;;;2.50;;
67869;SDS011;54673;52.262;6.830;2023-03-03T00:14:51;4.35;;;2.22;;
67869;SDS011;54673;52.262;6.830;2023-03-03T00:17:21;4.73;;;2.63;;
67869;SDS011;54673;52.262;6.830;2023-03-03T00:19:52;5.15;;;2.38;;
67869;SDS011;54673;52.262;6.830;2023-03-03T00:22:21;3.80;;;2.47;;
67869;SDS011;54673;52.262;6.830;2023-03-03T00:24:59;3.92;;;2.30;;
67869;SDS011;54673;52.262;6.830;2023-03-03T00:27:45;4.25;;;2.33;;
67869;SDS011;54673;52.262;6.830;2023-03-03T00:30:19;3.70;;;2.57;;
67869;SDS011;54673;52.262;6.830;2023-03-03T00:32:52;4.63;;;2.50;;
67869;SDS011;54673;52.262;6.830;2023-03-03T00:37:49;3.47;;;2.10;;
67869;SDS011;54673;52.262;6.830;2023-03-03T00:40:24;4.05;;;2.55;;
67869;SDS011;54673;52.262;6.830;2023-03-03T00:42:55;5.20;;;2.50;;
67869;SDS011;54673;52.262;6.830;2023-03-03T00:45:32;3.45;;;2.20;;
67869;SDS011;54673;52.262;6.830;2023-03-03T00:48:27;4.27;;;2.10;;
67869;SDS011;54673;52.262;6.830;2023-03-03T00:50:59;4.43;;;2.58;;
67869;SDS011;54673;52.262;6.830;2023-03-03T00:53:29;3.65;;;2.15;;
67869;SDS011;54673;52.262;6.830;2023-03-03T00:55:55;3.90;;;2.37;;
67869;SDS011;54673;52.262;6.830;2023-03-03T00:58:22;3.22;;;2.13;;
67869;SDS011;54673;52.262;6.830;2023-03-03T01:00:48;7.13;;;2.30;;
67869;SDS011;54673;52.262;6.830;2023-03-03T01:03:17;4.18;;;2.00;;
67869;SDS011;54673;52.262;6.830;2023-03-03T01:05:45;3.03;;;1.88;;
67869;SDS011;54673;52.262;6.830;2023-03-03T01:08:11;3.63;;;2.07;;
67869;SDS011;54673;52.262;6.830;2023-03-03T01:10:41;3.45;;;1.80;;
67869;SDS011;54673;52.262;6.830;2023-03-03T01:13:19;4.53;;;2.10;;
67869;SDS011;54673;52.262;6.830;2023-03-03T01:15:48;4.63;;;2.20;;
67869;SDS011;54673;52.262;6.830;2023-03-03T01:18:14;3.80;;;2.08;;
67869;SDS011;54673;52.262;6.830;2023-03-03T01:20:40;3.57;;;2.00;;
67869;SDS011;54673;52.262;6.830;2023-03-03T01:23:06;4.20;;;2.20;;
67869;SDS011;54673;52.262;6.830;2023-03-03T01:25:31;3.57;;;2.30;;
67869;SDS011;54673;52.262;6.830;2023-03-03T01:27:57;3.33;;;1.95;;
67869;SDS011;54673;52.262;6.830;2023-03-03T01:30:23;3.77;;;2.30;;
67869;SDS011;54673;52.262;6.830;2023-03-03T01:32:49;2.88;;;1.88;;
67869;SDS011;54673;52.262;6.830;2023-03-03T01:35:15;3.60;;;2.23;;
67869;SDS011;54673;52.262;6.830;2023-03-03T01:37:41;3.40;;;2.17;;
67869;SDS011;54673;52.262;6.830;2023-03-03T01:40:07;4.27;;;1.93;;
67869;SDS011;54673;52.262;6.830;2023-03-03T01:42:39;3.30;;;2.20;;
67869;SDS011;54673;52.262;6.830;2023-03-03T01:47:53;4.50;;;2.38;;
67869;SDS011;54673;52.262;6.830;2023-03-03T01:53:22;3.73;;;2.10;;
67869;SDS011;54673;52.262;6.830;2023-03-03T01:55:53;3.28;;;2.30;;
67869;SDS011;54673;52.262;6.830;2023-03-03T01:58:20;3.50;;;2.37;;
67869;SDS011;54673;52.262;6.830;2023-03-03T02:01:01;3.10;;;1.95;;
67869;SDS011;54673;52.262;6.830;2023-03-03T02:03:31;3.25;;;1.95;;
67869;SDS011;54673;52.262;6.830;2023-03-03T02:05:59;3.87;;;2.10;;
67869;SDS011;54673;52.262;6.830;2023-03-03T02:08:32;3.33;;;1.80;;
67869;SDS011;54673;52.262;6.830;2023-03-03T02:11:12;3.47;;;2.20;;
67869;SDS011;54673;52.262;6.830;2023-03-03T02:13:39;4.40;;;2.15;;
67869;SDS011;54673;52.262;6.830;2023-03-03T02:16:05;3.60;;;2.30;;
67869;SDS011;54673;52.262;6.830;2023-03-03T02:18:31;2.85;;;1.88;;
67869;SDS011;54673;52.262;6.830;2023-03-03T02:20:58;3.40;;;2.07;;
67869;SDS011;54673;52.262;6.830;2023-03-03T02:23:42;2.60;;;1.70;;
67869;SDS011;54673;52.262;6.830;2023-03-03T02:26:26;3.53;;;1.90;;
67869;SDS011;54673;52.262;6.830;2023-03-03T02:28:53;3.43;;;2.00;;
67869;SDS011;54673;52.262;6.830;2023-03-03T02:31:21;3.30;;;1.88;;
67869;SDS011;54673;52.262;6.830;2023-03-03T02:33:49;3.30;;;2.10;;
67869;SDS011;54673;52.262;6.830;2023-03-03T02:36:26;4.40;;;2.30;;
67869;SDS011;54673;52.262;6.830;2023-03-03T02:41:25;3.30;;;1.98;;
67869;SDS011;54673;52.262;6.830;2023-03-03T02:44:16;3.47;;;1.70;;
67869;SDS011;54673;52.262;6.830;2023-03-03T02:46:44;3.50;;;2.03;;
67869;SDS011;54673;52.262;6.830;2023-03-03T02:49:13;3.27;;;2.10;;
67869;SDS011;54673;52.262;6.830;2023-03-03T02:51:39;3.60;;;2.20;;
67869;SDS011;54673;52.262;6.830;2023-03-03T02:54:05;3.05;;;1.90;;
67869;SDS011;54673;52.262;6.830;2023-03-03T02:56:32;3.73;;;2.20;;
67869;SDS011;54673;52.262;6.830;2023-03-03T02:58:59;4.22;;;2.10;;
67869;SDS011;54673;52.262;6.830;2023-03-03T03:01:24;2.97;;;2.17;;
67869;SDS011;54673;52.262;6.830;2023-03-03T03:03:50;3.47;;;2.00;;
67869;SDS011;54673;52.262;6.830;2023-03-03T03:06:16;3.30;;;1.90;;
67869;SDS011;54673;52.262;6.830;2023-03-03T03:08:41;4.15;;;2.10;;
67869;SDS011;54673;52.262;6.830;2023-03-03T03:11:07;3.30;;;1.80;;
67869;SDS011;54673;52.262;6.830;2023-03-03T03:13:33;3.28;;;1.70;;
67869;SDS011;54673;52.262;6.830;2023-03-03T03:15:59;3.27;;;1.87;;
67869;SDS011;54673;52.262;6.830;2023-03-03T03:18:25;3.33;;;1.98;;
67869;SDS011;54673;52.262;6.830;2023-03-03T03:20:51;3.90;;;1.92;;
67869;SDS011;54673;52.262;6.830;2023-03-03T03:23:17;3.00;;;1.90;;
67869;SDS011;54673;52.262;6.830;2023-03-03T03:25:42;3.17;;;1.92;;
67869;SDS011;54673;52.262;6.830;2023-03-03T03:28:12;3.60;;;2.10;;
67869;SDS011;54673;52.262;6.830;2023-03-03T03:30:39;3.50;;;2.00;;
67869;SDS011;54673;52.262;6.830;2023-03-03T03:33:05;3.23;;;1.80;;
67869;SDS011;54673;52.262;6.830;2023-03-03T03:35:32;3.88;;;2.42;;
67869;SDS011;54673;52.262;6.830;2023-03-03T03:37:58;3.67;;;2.20;;
67869;SDS011;54673;52.262;6.830;2023-03-03T03:40:24;3.60;;;1.93;;
67869;SDS011;54673;52.262;6.830;2023-03-03T03:42:51;3.53;;;2.13;;
67869;SDS011;54673;52.262;6.830;2023-03-03T03:45:17;3.10;;;1.97;;
67869;SDS011;54673;52.262;6.830;2023-03-03T03:47:43;3.97;;;1.98;;
67869;SDS011;54673;52.262;6.830;2023-03-03T03:50:08;3.43;;;1.87;;
67869;SDS011;54673;52.262;6.830;2023-03-03T03:52:35;2.90;;;2.10;;
67869;SDS011;54673;52.262;6.830;2023-03-03T03:55:00;4.30;;;1.90;;
67869;SDS011;54673;52.262;6.830;2023-03-03T03:57:26;3.47;;;2.03;;
67869;SDS011;54673;52.262;6.830;2023-03-03T03:59:51;3.53;;;1.90;;
67869;SDS011;54673;52.262;6.830;2023-03-03T04:02:17;4.80;;;2.40;;
67869;SDS011;54673;52.262;6.830;2023-03-03T04:04:43;3.00;;;1.90;;
67869;SDS011;54673;52.262;6.830;2023-03-03T04:07:09;3.47;;;1.90;;
67869;SDS011;54673;52.262;6.830;2023-03-03T04:09:34;3.87;;;2.10;;
67869;SDS011;54673;52.262;6.830;2023-03-03T04:12:00;3.22;;;2.00;;
67869;SDS011;54673;52.262;6.830;2023-03-03T04:14:25;4.00;;;2.40;;
67869;SDS011;54673;52.262;6.830;2023-03-03T04:16:51;4.22;;;2.42;;
67869;SDS011;54673;52.262;6.830;2023-03-03T04:19:17;3.87;;;2.20;;
67869;SDS011;54673;52.262;6.830;2023-03-03T04:21:42;4.03;;;2.15;;
67869;SDS011;54673;52.262;6.830;2023-03-03T04:24:08;3.70;;;1.73;;
67869;SDS011;54673;52.262;6.830;2023-03-03T04:26:34;4.55;;;2.17;;
67869;SDS011;54673;52.262;6.830;2023-03-03T04:28:59;3.17;;;1.90;;
67869;SDS011;54673;52.262;6.830;2023-03-03T04:31:25;4.22;;;2.00;;
67869;SDS011;54673;52.262;6.830;2023-03-03T04:33:51;3.83;;;2.00;;
67869;SDS011;54673;52.262;6.830;2023-03-03T04:36:17;3.15;;;1.85;;
67869;SDS011;54673;52.262;6.830;2023-03-03T04:38:43;3.37;;;2.07;;
67869;SDS011;54673;52.262;6.830;2023-03-03T04:41:09;3.80;;;1.80;;
67869;SDS011;54673;52.262;6.830;2023-03-03T04:43:35;3.30;;;2.00;;
67869;SDS011;54673;52.262;6.830;2023-03-03T04:46:00;2.78;;;1.90;;
67869;SDS011;54673;52.262;6.830;2023-03-03T04:48:26;4.70;;;2.40;;
67869;SDS011;54673;52.262;6.830;2023-03-03T04:50:52;3.20;;;2.00;;
67869;SDS011;54673;52.262;6.830;2023-03-03T04:53:18;4.30;;;2.07;;
67869;SDS011;54673;52.262;6.830;2023-03-03T04:55:43;4.15;;;2.28;;
67869;SDS011;54673;52.262;6.830;2023-03-03T04:58:09;3.80;;;2.30;;
67869;SDS011;54673;52.262;6.830;2023-03-03T05:00:35;4.13;;;1.90;;
67869;SDS011;54673;52.262;6.830;2023-03-03T05:03:00;3.00;;;2.00;;
67869;SDS011;54673;52.262;6.830;2023-03-03T05:05:26;3.20;;;2.00;;
67869;SDS011;54673;52.262;6.830;2023-03-03T05:07:51;4.00;;;2.20;;
67869;SDS011;54673;52.262;6.830;2023-03-03T05:10:17;2.80;;;1.60;;
67869;SDS011;54673;52.262;6.830;2023-03-03T05:12:43;4.03;;;2.50;;
67869;SDS011;54673;52.262;6.830;2023-03-03T05:15:09;3.97;;;2.30;;
67869;SDS011;54673;52.262;6.830;2023-03-03T05:17:35;2.97;;;1.90;;
67869;SDS011;54673;52.262;6.830;2023-03-03T05:20:01;3.10;;;1.70;;
67869;SDS011;54673;52.262;6.830;2023-03-03T05:22:29;3.13;;;2.00;;
67869;SDS011;54673;52.262;6.830;2023-03-03T05:24:55;3.63;;;1.80;;
67869;SDS011;54673;52.262;6.830;2023-03-03T05:27:21;3.92;;;2.08;;
67869;SDS011;54673;52.262;6.830;2023-03-03T05:29:47;2.73;;;1.87;;
67869;SDS011;54673;52.262;6.830;2023-03-03T05:32:13;2.83;;;1.58;;
67869;SDS011;54673;52.262;6.830;2023-03-03T05:34:38;2.80;;;1.83;;
67869;SDS011;54673;52.262;6.830;2023-03-03T05:37:04;2.47;;;1.70;;
67869;SDS011;54673;52.262;6.830;2023-03-03T05:39:30;2.90;;;1.70;;
67869;SDS011;54673;52.262;6.830;2023-03-03T05:41:56;2.53;;;1.80;;
67869;SDS011;54673;52.262;6.830;2023-03-03T05:44:24;3.43;;;1.87;;
67869;SDS011;54673;52.262;6.830;2023-03-03T05:46:49;3.08;;;2.00;;
67869;SDS011;54673;52.262;6.830;2023-03-03T05:49:15;3.27;;;1.93;;
67869;SDS011;54673;52.262;6.830;2023-03-03T05:51:40;3.50;;;2.00;;
67869;SDS011;54673;52.262;6.830;2023-03-03T05:54:06;3.65;;;2.10;;
67869;SDS011;54673;52.262;6.830;2023-03-03T05:56:32;4.70;;;2.23;;
67869;SDS011;54673;52.262;6.830;2023-03-03T05:58:57;2.87;;;1.80;;
67869;SDS011;54673;52.262;6.830;2023-03-03T06:01:23;3.78;;;2.13;;
67869;SDS011;54673;52.262;6.830;2023-03-03T06:03:48;2.40;;;1.57;;
67869;SDS011;54673;52.262;6.830;2023-03-03T06:06:14;3.37;;;1.93;;
67869;SDS011;54673;52.262;6.830;2023-03-03T06:08:41;2.28;;;1.45;;
67869;SDS011;54673;52.262;6.830;2023-03-03T06:11:07;2.70;;;1.60;;
67869;SDS011;54673;52.262;6.830;2023-03-03T06:13:34;3.30;;;1.83;;
67869;SDS011;54673;52.262;6.830;2023-03-03T06:16:00;2.80;;;1.70;;
67869;SDS011;54673;52.262;6.830;2023-03-03T06:18:25;2.97;;;1.80;;
67869;SDS011;54673;52.262;6.830;2023-03-03T06:20:52;3.92;;;2.20;;
67869;SDS011;54673;52.262;6.830;2023-03-03T06:23:18;3.03;;;1.80;;
67869;SDS011;54673;52.262;6.830;2023-03-03T06:25:44;2.73;;;1.80;;
67869;SDS011;54673;52.262;6.830;2023-03-03T06:28:11;3.95;;;2.40;;
67869;SDS011;54673;52.262;6.830;2023-03-03T06:30:38;3.37;;;2.07;;
67869;SDS011;54673;52.262;6.830;2023-03-03T06:33:04;2.85;;;1.67;;
67869;SDS011;54673;52.262;6.830;2023-03-03T06:35:30;3.95;;;2.00;;
67869;SDS011;54673;52.262;6.830;2023-03-03T06:37:56;3.03;;;1.60;;
67869;SDS011;54673;52.262;6.830;2023-03-03T06:40:22;3.33;;;2.13;;
67869;SDS011;54673;52.262;6.830;2023-03-03T06:42:47;2.90;;;2.07;;
67869;SDS011;54673;52.262;6.830;2023-03-03T06:45:13;3.10;;;1.80;;
67869;SDS011;54673;52.262;6.830;2023-03-03T06:47:40;3.00;;;1.90;;
67869;SDS011;54673;52.262;6.830;2023-03-03T06:50:06;2.43;;;1.80;;
67869;SDS011;54673;52.262;6.830;2023-03-03T06:52:34;4.50;;;2.00;;
67869;SDS011;54673;52.262;6.830;2023-03-03T06:55:00;2.90;;;1.83;;
67869;SDS011;54673;52.262;6.830;2023-03-03T06:57:34;3.30;;;1.75;;
67869;SDS011;54673;52.262;6.830;2023-03-03T07:00:05;2.60;;;1.70;;
67869;SDS011;54673;52.262;6.830;2023-03-03T07:03:18;3.28;;;1.95;;
67869;SDS011;54673;52.262;6.830;2023-03-03T07:05:48;3.63;;;2.13;;
67869;SDS011;54673;52.262;6.830;2023-03-03T07:08:17;2.67;;;1.60;;
67869;SDS011;54673;52.262;6.830;2023-03-03T07:10:45;3.38;;;1.80;;
67869;SDS011;54673;52.262;6.830;2023-03-03T07:13:16;3.20;;;1.90;;
67869;SDS011;54673;52.262;6.830;2023-03-03T07:15:42;2.70;;;1.65;;
67869;SDS011;54673;52.262;6.830;2023-03-03T07:18:18;2.50;;;1.70;;
67869;SDS011;54673;52.262;6.830;2023-03-03T07:20:45;3.42;;;1.90;;
67869;SDS011;54673;52.262;6.830;2023-03-03T07:25:45;3.40;;;1.67;;
67869;SDS011;54673;52.262;6.830;2023-03-03T07:28:22;3.25;;;1.75;;
67869;SDS011;54673;52.262;6.830;2023-03-03T07:30:50;2.97;;;1.97;;
67869;SDS011;54673;52.262;6.830;2023-03-03T07:36:45;3.08;;;1.70;;
67869;SDS011;54673;52.262;6.830;2023-03-03T07:42:16;2.65;;;1.60;;
67869;SDS011;54673;52.262;6.830;2023-03-03T07:44:43;2.57;;;1.30;;
67869;SDS011;54673;52.262;6.830;2023-03-03T07:49:59;2.50;;;1.80;;
67869;SDS011;54673;52.262;6.830;2023-03-03T07:52:39;2.80;;;1.57;;
67869;SDS011;54673;52.262;6.830;2023-03-03T07:55:39;3.33;;;1.80;;
67869;SDS011;54673;52.262;6.830;2023-03-03T08:01:21;3.15;;;1.55;;
67869;SDS011;54673;52.262;6.830;2023-03-03T08:03:57;1.92;;;1.25;;
67869;SDS011;54673;52.262;6.830;2023-03-03T08:06:26;2.43;;;1.67;;
67869;SDS011;54673;52.262;6.830;2023-03-03T08:09:00;3.15;;;2.00;;
67869;SDS011;54673;52.262;6.830;2023-03-03T08:11:42;3.37;;;1.90;;
67869;SDS011;54673;52.262;6.830;2023-03-03T08:14:15;2.67;;;1.90;;
67869;SDS011;54673;52.262;6.830;2023-03-03T08:16:49;3.03;;;2.03;;
67869;SDS011;54673;52.262;6.830;2023-03-03T08:19:15;3.15;;;2.03;;
67869;SDS011;54673;52.262;6.830;2023-03-03T08:21:42;3.17;;;1.97;;
67869;SDS011;54673;52.262;6.830;2023-03-03T08:24:07;2.83;;;1.63;;
67869;SDS011;54673;52.262;6.830;2023-03-03T08:26:33;4.20;;;2.30;;
67869;SDS011;54673;52.262;6.830;2023-03-03T08:28:59;3.33;;;2.20;;
67869;SDS011;54673;52.262;6.830;2023-03-03T08:31:25;2.40;;;1.63;;
67869;SDS011;54673;52.262;6.830;2023-03-03T08:33:51;1.93;;;1.60;;
67869;SDS011;54673;52.262;6.830;2023-03-03T08:36:16;2.97;;;1.77;;
67869;SDS011;54673;52.262;6.830;2023-03-03T08:38:42;3.07;;;1.83;;
67869;SDS011;54673;52.262;6.830;2023-03-03T08:41:08;2.87;;;1.70;;
67869;SDS011;54673;52.262;6.830;2023-03-03T08:43:33;2.88;;;1.80;;
67869;SDS011;54673;52.262;6.830;2023-03-03T08:46:00;3.60;;;1.57;;
67869;SDS011;54673;52.262;6.830;2023-03-03T08:48:27;2.88;;;1.85;;
67869;SDS011;54673;52.262;6.830;2023-03-03T08:50:53;2.23;;;1.60;;
67869;SDS011;54673;52.262;6.830;2023-03-03T08:53:19;3.25;;;2.08;;
67869;SDS011;54673;52.262;6.830;2023-03-03T08:55:46;3.35;;;1.88;;
67869;SDS011;54673;52.262;6.830;2023-03-03T08:58:11;2.87;;;1.73;;
67869;SDS011;54673;52.262;6.830;2023-03-03T09:00:38;2.20;;;1.60;;
67869;SDS011;54673;52.262;6.830;2023-03-03T09:03:04;2.83;;;1.70;;
67869;SDS011;54673;52.262;6.830;2023-03-03T09:05:34;2.75;;;1.60;;
67869;SDS011;54673;52.262;6.830;2023-03-03T09:08:00;3.63;;;1.77;;
67869;SDS011;54673;52.262;6.830;2023-03-03T09:10:26;2.37;;;1.47;;
67869;SDS011;54673;52.262;6.830;2023-03-03T09:12:55;2.72;;;1.73;;
67869;SDS011;54673;52.262;6.830;2023-03-03T09:15:27;3.27;;;1.60;;
67869;SDS011;54673;52.262;6.830;2023-03-03T09:17:57;2.88;;;1.63;;
67869;SDS011;54673;52.262;6.830;2023-03-03T09:22:52;2.50;;;1.70;;
67869;SDS011;54673;52.262;6.830;2023-03-03T09:27:57;2.33;;;1.20;;
67869;SDS011;54673;52.262;6.830;2023-03-03T09:30:27;4.13;;;1.27;;
67869;SDS011;54673;52.262;6.830;2023-03-03T09:33:25;3.20;;;1.80;;
67869;SDS011;54673;52.262;6.830;2023-03-03T09:39:12;3.10;;;1.90;;
67869;SDS011;54673;52.262;6.830;2023-03-03T09:59:17;4.55;;;1.85;;
67869;SDS011;54673;52.262;6.830;2023-03-03T10:10:16;4.47;;;1.83;;
67869;SDS011;54673;52.262;6.830;2023-03-03T10:18:57;4.32;;;2.05;;
67869;SDS011;54673;52.262;6.830;2023-03-03T10:21:29;6.03;;;2.00;;
67869;SDS011;54673;52.262;6.830;2023-03-03T10:24:08;3.20;;;1.70;;
67869;SDS011;54673;52.262;6.830;2023-03-03T10:26:51;5.68;;;2.00;;
67869;SDS011;54673;52.262;6.830;2023-03-03T10:32:32;6.13;;;1.60;;
67869;SDS011;54673;52.262;6.830;2023-03-03T10:41:25;9.80;;;1.33;;
67869;SDS011;54673;52.262;6.830;2023-03-03T10:46:45;3.45;;;1.40;;
67869;SDS011;54673;52.262;6.830;2023-03-03T11:00:19;4.55;;;1.27;;
67869;SDS011;54673;52.262;6.830;2023-03-03T11:05:54;10.23;;;1.80;;
67869;SDS011;54673;52.262;6.830;2023-03-03T11:19:05;2.40;;;1.33;;
67869;SDS011;54673;52.262;6.830;2023-03-03T11:32:18;9.50;;;1.80;;
67869;SDS011;54673;52.262;6.830;2023-03-03T11:35:05;7.38;;;1.85;;
67869;SDS011;54673;52.262;6.830;2023-03-03T11:40:29;2.28;;;1.40;;
67869;SDS011;54673;52.262;6.830;2023-03-03T11:43:50;4.63;;;1.30;;
67869;SDS011;54673;52.262;6.830;2023-03-03T11:45:53;3.37;;;1.57;;
67869;SDS011;54673;52.262;6.830;2023-03-03T11:48:35;2.67;;;1.20;;
67869;SDS011;54673;52.262;6.830;2023-03-03T11:51:05;4.50;;;1.30;;
67869;SDS011;54673;52.262;6.830;2023-03-03T11:56:44;5.63;;;1.35;;
67869;SDS011;54673;52.262;6.830;2023-03-03T11:59:32;3.37;;;1.30;;
67869;SDS011;54673;52.262;6.830;2023-03-03T12:05:29;3.10;;;1.38;;
67869;SDS011;54673;52.262;6.830;2023-03-03T12:07:46;2.47;;;1.40;;
67869;SDS011;54673;52.262;6.830;2023-03-03T12:10:35;3.75;;;1.10;;
67869;SDS011;54673;52.262;6.830;2023-03-03T12:13:34;4.03;;;1.20;;
67869;SDS011;54673;52.262;6.830;2023-03-03T12:30:05;4.38;;;1.60;;
67869;SDS011;54673;52.262;6.830;2023-03-03T12:35:18;3.60;;;1.50;;
67869;SDS011;54673;52.262;6.830;2023-03-03T12:40:50;4.40;;;1.63;;
67869;SDS011;54673;52.262;6.830;2023-03-03T12:49:12;2.37;;;1.30;;
67869;SDS011;54673;52.262;6.830;2023-03-03T12:51:45;3.30;;;1.45;;
67869;SDS011;54673;52.262;6.830;2023-03-03T12:54:39;3.47;;;1.70;;
67869;SDS011;54673;52.262;6.830;2023-03-03T13:02:59;3.57;;;1.50;;
67869;SDS011;54673;52.262;6.830;2023-03-03T13:05:34;3.53;;;1.45;;
67869;SDS011;54673;52.262;6.830;2023-03-03T13:11:26;2.60;;;1.35;;
67869;SDS011;54673;52.262;6.830;2023-03-03T13:16:59;2.87;;;1.40;;
67869;SDS011;54673;52.262;6.830;2023-03-03T13:19:40;3.13;;;1.45;;
67869;SDS011;54673;52.262;6.830;2023-03-03T13:22:23;3.50;;;1.20;;
67869;SDS011;54673;52.262;6.830;2023-03-03T13:27:57;2.20;;;1.20;;
67869;SDS011;54673;52.262;6.830;2023-03-03T13:30:29;5.50;;;1.10;;
67869;SDS011;54673;52.262;6.830;2023-03-03T13:33:04;4.70;;;1.30;;
67869;SDS011;54673;52.262;6.830;2023-03-03T13:35:42;10.17;;;1.40;;
67869;SDS011;54673;52.262;6.830;2023-03-03T13:38:12;7.25;;;1.10;;
67869;SDS011;54673;52.262;6.830;2023-03-03T13:40:53;6.97;;;1.00;;
67869;SDS011;54673;52.262;6.830;2023-03-03T13:43:23;2.90;;;1.07;;
67869;SDS011;54673;52.262;6.830;2023-03-03T13:46:39;8.85;;;1.10;;
67869;SDS011;54673;52.262;6.830;2023-03-03T13:49:11;7.10;;;1.10;;
67869;SDS011;54673;52.262;6.830;2023-03-03T13:52:02;2.83;;;0.90;;
67869;SDS011;54673;52.262;6.830;2023-03-03T14:02:25;3.93;;;1.10;;
67869;SDS011;54673;52.262;6.830;2023-03-03T14:07:50;1.87;;;0.80;;
67869;SDS011;54673;52.262;6.830;2023-03-03T14:10:31;2.88;;;0.90;;
67869;SDS011;54673;52.262;6.830;2023-03-03T14:13:18;2.75;;;0.90;;
67869;SDS011;54673;52.262;6.830;2023-03-03T14:15:54;4.50;;;1.00;;
67869;SDS011;54673;52.262;6.830;2023-03-03T14:18:33;2.67;;;0.80;;
67869;SDS011;54673;52.262;6.830;2023-03-03T14:21:10;6.60;;;0.90;;
67869;SDS011;54673;52.262;6.830;2023-03-03T14:23:49;1.95;;;0.90;;
67869;SDS011;54673;52.262;6.830;2023-03-03T14:26:27;2.35;;;0.90;;
67869;SDS011;54673;52.262;6.830;2023-03-03T14:29:04;2.20;;;0.93;;
67869;SDS011;54673;52.262;6.830;2023-03-03T14:31:43;4.38;;;0.98;;
67869;SDS011;54673;52.262;6.830;2023-03-03T14:34:25;2.53;;;0.97;;
67869;SDS011;54673;52.262;6.830;2023-03-03T14:37:24;2.40;;;0.60;;
67869;SDS011;54673;52.262;6.830;2023-03-03T14:39:59;1.93;;;0.93;;
67869;SDS011;54673;52.262;6.830;2023-03-03T14:42:52;3.90;;;0.82;;
67869;SDS011;54673;52.262;6.830;2023-03-03T14:47:56;2.33;;;0.80;;
67869;SDS011;54673;52.262;6.830;2023-03-03T14:50:30;1.50;;;0.80;;
67869;SDS011;54673;52.262;6.830;2023-03-03T14:53:03;2.00;;;1.10;;
67869;SDS011;54673;52.262;6.830;2023-03-03T14:55:37;1.98;;;0.65;;
67869;SDS011;54673;52.262;6.830;2023-03-03T15:06:28;4.60;;;0.93;;
67869;SDS011;54673;52.262;6.830;2023-03-03T15:09:10;2.80;;;0.82;;
67869;SDS011;54673;52.262;6.830;2023-03-03T15:11:52;1.77;;;0.70;;
67869;SDS011;54673;52.262;6.830;2023-03-03T15:14:28;3.83;;;0.98;;
67869;SDS011;54673;52.262;6.830;2023-03-03T15:16:55;2.33;;;0.80;;
67869;SDS011;54673;52.262;6.830;2023-03-03T15:19:37;2.13;;;0.70;;
67869;SDS011;54673;52.262;6.830;2023-03-03T15:27:26;1.35;;;1.00;;
67869;SDS011;54673;52.262;6.830;2023-03-03T15:30:29;1.70;;;0.67;;
67869;SDS011;54673;52.262;6.830;2023-03-03T15:32:57;1.77;;;0.60;;
67869;SDS011;54673;52.262;6.830;2023-03-03T15:35:33;1.30;;;0.90;;
67869;SDS011;54673;52.262;6.830;2023-03-03T15:38:20;1.57;;;0.60;;
67869;SDS011;54673;52.262;6.830;2023-03-03T15:41:12;1.92;;;0.80;;
67869;SDS011;54673;52.262;6.830;2023-03-03T15:52:14;2.43;;;0.97;;
67869;SDS011;54673;52.262;6.830;2023-03-03T15:57:43;1.53;;;0.80;;
67869;SDS011;54673;52.262;6.830;2023-03-03T16:03:19;1.10;;;0.63;;
67869;SDS011;54673;52.262;6.830;2023-03-03T16:05:53;1.27;;;0.80;;
67869;SDS011;54673;52.262;6.830;2023-03-03T16:16:34;2.03;;;0.77;;
67869;SDS011;54673;52.262;6.830;2023-03-03T16:27:56;0.83;;;0.80;;
67869;SDS011;54673;52.262;6.830;2023-03-03T16:30:35;0.95;;;0.70;;
67869;SDS011;54673;52.262;6.830;2023-03-03T16:36:26;1.77;;;0.80;;
67869;SDS011;54673;52.262;6.830;2023-03-03T16:38:49;0.90;;;0.60;;
67869;SDS011;54673;52.262;6.830;2023-03-03T16:41:40;1.40;;;0.80;;
67869;SDS011;54673;52.262;6.830;2023-03-03T16:44:14;1.88;;;0.63;;
67869;SDS011;54673;52.262;6.830;2023-03-03T16:52:32;1.23;;;0.80;;
67869;SDS011;54673;52.262;6.830;2023-03-03T16:55:08;1.10;;;0.80;;
67869;SDS011;54673;52.262;6.830;2023-03-03T16:57:47;2.40;;;0.75;;
67869;SDS011;54673;52.262;6.830;2023-03-03T17:00:48;1.75;;;0.80;;
67869;SDS011;54673;52.262;6.830;2023-03-03T17:06:15;1.40;;;0.68;;
67869;SDS011;54673;52.262;6.830;2023-03-03T17:08:57;7.00;;;0.80;;
67869;SDS011;54673;52.262;6.830;2023-03-03T17:17:31;3.10;;;0.90;;
67869;SDS011;54673;52.262;6.830;2023-03-03T17:25:36;1.50;;;0.60;;
67869;SDS011;54673;52.262;6.830;2023-03-03T17:28:09;5.30;;;1.00;;
67869;SDS011;54673;52.262;6.830;2023-03-03T17:35:56;1.20;;;0.70;;
67869;SDS011;54673;52.262;6.830;2023-03-03T17:41:32;2.33;;;0.70;;
67869;SDS011;54673;52.262;6.830;2023-03-03T17:46:59;2.60;;;0.93;;
67869;SDS011;54673;52.262;6.830;2023-03-03T17:49:42;1.33;;;0.80;;
67869;SDS011;54673;52.262;6.830;2023-03-03T18:11:12;0.98;;;0.63;;
67869;SDS011;54673;52.262;6.830;2023-03-03T18:14:04;0.90;;;0.70;;
67869;SDS011;54673;52.262;6.830;2023-03-03T18:19:46;0.90;;;0.80;;
67869;SDS011;54673;52.262;6.830;2023-03-03T18:24:57;1.48;;;0.70;;
67869;SDS011;54673;52.262;6.830;2023-03-03T18:27:33;1.50;;;0.63;;
67869;SDS011;54673;52.262;6.830;2023-03-03T18:30:14;1.80;;;1.08;;
67869;SDS011;54673;52.262;6.830;2023-03-03T18:35:36;2.00;;;0.80;;
67869;SDS011;54673;52.262;6.830;2023-03-03T18:40:49;1.37;;;0.60;;
67869;SDS011;54673;52.262;6.830;2023-03-03T18:54:00;1.37;;;0.63;;
67869;SDS011;54673;52.262;6.830;2023-03-03T18:57:19;1.50;;;0.70;;
67869;SDS011;54673;52.262;6.830;2023-03-03T19:04:34;2.10;;;0.80;;
67869;SDS011;54673;52.262;6.830;2023-03-03T19:07:07;1.23;;;0.68;;
67869;SDS011;54673;52.262;6.830;2023-03-03T19:09:47;2.17;;;0.73;;
67869;SDS011;54673;52.262;6.830;2023-03-03T19:12:58;3.23;;;0.83;;
67869;SDS011;54673;52.262;6.830;2023-03-03T19:20:52;2.05;;;0.98;;
67869;SDS011;54673;52.262;6.830;2023-03-03T19:26:46;1.20;;;0.90;;
67869;SDS011;54673;52.262;6.830;2023-03-03T19:32:12;0.90;;;0.70;;
67869;SDS011;54673;52.262;6.830;2023-03-03T19:35:03;2.33;;;0.90;;
67869;SDS011;54673;52.262;6.830;2023-03-03T19:37:43;4.28;;;0.75;;
67869;SDS011;54673;52.262;6.830;2023-03-03T19:54:08;1.93;;;0.90;;
67869;SDS011;54673;52.262;6.830;2023-03-03T19:56:47;1.75;;;0.90;;
67869;SDS011;54673;52.262;6.830;2023-03-03T20:01:58;1.80;;;1.00;;
67869;SDS011;54673;52.262;6.830;2023-03-03T20:12:43;3.22;;;0.80;;
67869;SDS011;54673;52.262;6.830;2023-03-03T20:15:18;3.33;;;0.80;;
67869;SDS011;54673;52.262;6.830;2023-03-03T20:20:45;2.30;;;0.90;;
67869;SDS011;54673;52.262;6.830;2023-03-03T20:31:20;2.05;;;0.85;;
67869;SDS011;54673;52.262;6.830;2023-03-03T20:55:14;2.07;;;0.73;;
67869;SDS011;54673;52.262;6.830;2023-03-03T21:00:38;2.43;;;1.17;;
67869;SDS011;54673;52.262;6.830;2023-03-03T21:06:00;2.60;;;1.10;;
67869;SDS011;54673;52.262;6.830;2023-03-03T21:08:39;3.65;;;0.90;;
67869;SDS011;54673;52.262;6.830;2023-03-03T21:11:11;2.33;;;1.00;;
67869;SDS011;54673;52.262;6.830;2023-03-03T21:13:43;5.10;;;0.90;;
67869;SDS011;54673;52.262;6.830;2023-03-03T21:19:00;2.40;;;1.10;;
67869;SDS011;54673;52.262;6.830;2023-03-03T21:21:29;2.08;;;0.80;;
67869;SDS011;54673;52.262;6.830;2023-03-03T21:23:56;2.72;;;1.00;;
67869;SDS011;54673;52.262;6.830;2023-03-03T21:31:47;3.27;;;1.00;;
67869;SDS011;54673;52.262;6.830;2023-03-03T21:34:18;2.40;;;0.98;;
67869;SDS011;54673;52.262;6.830;2023-03-03T21:36:47;2.47;;;1.02;;
67869;SDS011;54673;52.262;6.830;2023-03-03T21:41:49;1.80;;;0.80;;
67869;SDS011;54673;52.262;6.830;2023-03-03T21:44:27;2.60;;;1.07;;